Time;durP1;ratioP1;P1;durP2;ratioP2;P2;SDS_P1;SDS_P2;PMS_P1;PMS_P2;Temp;Humidity;BMP_temperature;BMP_pressure;BME280_temperature;BME280_humidity;BME280_pressure;Samples;Min_cycle;Max_cycle;Signal;HPM_P1;HPM_P2
2022/12/06 00:01:57;;;;;;;;;48.00;25.00;;;;;5.68;67.10;101788.69;5096841;27;46190;-49
2022/12/06 00:04:22;;;;;;;;;49.50;36.75;;;;;5.67;67.04;101787.00;5097916;27;45435;-49
2022/12/06 00:06:51;;;;;;;;;41.00;31.50;;;;;5.64;66.81;101778.41;5098343;27;45431;-51
2022/12/06 00:09:29;;;;;;;;;43.50;36.25;;;;;5.65;67.56;101783.59;5098059;27;45242;-50
2022/12/06 00:11:55;;;;;;;;;49.75;38.50;;;;;5.66;67.27;101782.66;5097584;27;45448;-48
2022/12/06 00:14:21;;;;;;;;;49.25;33.00;;;;;5.56;67.26;101765.63;5097994;27;45429;-50
2022/12/06 00:16:47;;;;;;;;;46.75;38.75;;;;;5.62;67.15;101775.00;5097835;27;45451;-48
2022/12/06 00:19:15;;;;;;;;;52.75;35.25;;;;;5.59;67.08;101772.53;5098332;27;45390;-48
2022/12/06 00:21:41;;;;;;;;;34.25;29.25;;;;;5.49;67.49;101751.13;5097632;27;46428;-52
2022/12/06 00:24:15;;;;;;;;;44.25;36.50;;;;;5.60;67.67;101775.06;5097748;27;45319;-50
2022/12/06 00:26:43;;;;;;;;;54.50;38.50;;;;;5.61;67.61;101771.53;5097856;27;45433;-48
2022/12/06 00:29:12;;;;;;;;;46.00;40.00;;;;;5.61;67.26;101762.75;5098037;27;45222;-48
2022/12/06 00:31:38;;;;;;;;;47.00;37.00;;;;;5.61;67.48;101758.31;5097421;27;47012;-50
2022/12/06 00:34:03;;;;;;;;;30.75;18.75;;;;;5.60;67.74;101759.25;5097575;27;45342;-48
2022/12/06 00:36:35;;;;;;;;;49.75;33.25;;;;;5.59;67.31;101747.00;5097748;27;45345;-48
2022/12/06 00:39:04;;;;;;;;;43.25;33.50;;;;;5.64;67.48;101757.28;5097764;27;45293;-50
2022/12/06 00:41:29;;;;;;;;;52.00;35.75;;;;;5.63;67.88;101745.88;5096986;27;45408;-50
2022/12/06 00:43:55;;;;;;;;;43.75;32.00;;;;;5.66;67.87;101750.13;5097374;27;45568;-50
2022/12/06 00:46:26;;;;;;;;;45.25;35.75;;;;;5.68;67.83;101748.25;5097431;27;45299;-47
2022/12/06 00:48:53;;;;;;;;;46.00;34.50;;;;;5.68;68.32;101756.16;5097851;27;45390;-48
2022/12/06 00:51:20;;;;;;;;;51.50;35.75;;;;;5.65;67.94;101745.81;5097684;27;47207;-48
2022/12/06 00:53:46;;;;;;;;;41.00;34.50;;;;;5.71;67.79;101751.56;5098474;27;45306;-51
2022/12/06 00:56:12;;;;;;;;;48.50;33.75;;;;;5.74;67.82;101737.34;5098062;27;45216;-48
2022/12/06 00:58:37;;;;;;;;;45.00;36.75;;;;;5.74;68.14;101743.47;5101375;27;45309;-49
2022/12/06 01:01:11;;;;;;;;;55.25;33.75;;;;;5.75;67.62;101739.03;5100994;27;46365;-47
2022/12/06 01:03:37;;;;;;;;;51.00;35.25;;;;;5.72;67.62;101742.69;5101083;27;45435;-51
2022/12/06 01:06:05;;;;;;;;;45.75;35.75;;;;;5.75;67.93;101745.16;5101016;27;45392;-49
2022/12/06 01:08:30;;;;;;;;;47.25;40.25;;;;;5.71;68.01;101735.72;5101055;27;45218;-48
2022/12/06 01:10:56;;;;;;;;;43.25;35.00;;;;;5.76;67.86;101748.63;5100666;27;46277;-51
2022/12/06 01:13:21;;;;;;;;;46.25;33.75;;;;;5.77;68.00;101745.06;5100673;27;45316;-48
2022/12/06 01:15:47;;;;;;;;;46.50;37.50;;;;;5.77;67.86;101750.31;5101093;27;45424;-50
2022/12/06 01:18:12;;;;;;;;;50.50;34.25;;;;;5.79;68.11;101747.63;5101040;27;45355;-47
2022/12/06 01:20:37;;;;;;;;;33.25;29.75;;;;;5.80;67.94;101741.38;5100607;27;46012;-49
2022/12/06 01:23:03;;;;;;;;;45.75;33.75;;;;;5.81;68.05;101748.34;5100555;27;45480;-51
2022/12/06 01:25:29;;;;;;;;;50.50;36.00;;;;;5.78;68.37;101741.50;5100674;27;45300;-48
2022/12/06 01:27:55;;;;;;;;;50.00;36.50;;;;;5.81;68.10;101743.94;5100832;27;45331;-50
2022/12/06 01:30:20;;;;;;;;;44.50;38.50;;;;;5.79;68.05;101739.69;5100313;27;46259;-51
2022/12/06 01:32:46;;;;;;;;;42.50;36.75;;;;;5.78;67.96;101743.28;5100569;27;45431;-49
2022/12/06 01:35:11;;;;;;;;;46.50;37.00;;;;;5.76;67.89;101744.19;5100639;27;45254;-47
2022/12/06 01:37:36;;;;;;;;;39.75;30.50;;;;;5.75;68.29;101742.50;5100834;27;45228;-49
2022/12/06 01:40:02;;;;;;;;;40.50;33.50;;;;;5.71;67.86;101735.72;5100280;27;45302;-52
2022/12/06 01:42:27;;;;;;;;;44.75;36.50;;;;;5.68;68.06;101738.53;5100390;27;45243;-49
2022/12/06 01:44:55;;;;;;;;;50.25;34.75;;;;;5.66;68.41;101731.66;5100618;27;45446;-50
2022/12/06 01:47:30;;;;;;;;;41.75;31.25;;;;;5.60;68.66;101735.50;5100291;27;45496;-50
2022/12/06 01:50:31;;;;;;;;;46.00;30.50;;;;;5.55;68.23;101741.97;5100079;27;46220;-50
2022/12/06 01:53:03;;;;;;;;;42.00;32.50;;;;;5.49;68.50;101745.84;5017049;28;45396;-51
2022/12/06 01:55:34;;;;;;;;;52.75;41.25;;;;;5.46;68.97;101753.94;5016939;28;45365;-48
2022/12/06 01:58:09;;;;;;;;;43.25;32.25;;;;;5.43;68.73;101744.38;5017694;28;45353;-48
2022/12/06 02:00:34;;;;;;;;;38.75;31.50;;;;;5.42;68.99;101745.34;5017149;28;46655;-48
2022/12/06 02:03:01;;;;;;;;;39.00;36.75;;;;;5.43;69.11;101752.31;5016942;28;45499;-53
2022/12/06 02:05:28;;;;;;;;;42.50;34.75;;;;;5.42;69.38;101749.75;5017180;28;45445;-49
2022/12/06 02:07:55;;;;;;;;;39.00;31.50;;;;;5.45;69.40;101741.69;5016512;28;45399;-49
2022/12/06 02:10:21;;;;;;;;;50.50;37.75;;;;;5.45;69.32;101744.31;5016489;28;45497;-51
2022/12/06 02:12:53;;;;;;;;;49.25;33.00;;;;;5.43;69.36;101743.53;5016757;28;45496;-51
2022/12/06 02:15:27;;;;;;;;;45.00;35.25;;;;;5.42;69.23;101741.84;5016925;28;45406;-50
2022/12/06 02:18:03;;;;;;;;;51.50;36.25;;;;;5.43;69.64;101744.38;5017028;28;45611;-51
2022/12/06 02:20:33;;;;;;;;;47.25;31.75;;;;;5.51;69.65;101749.22;5016897;28;46275;-49
2022/12/06 02:23:31;;;;;;;;;50.25;33.25;;;;;5.53;69.88;101746.53;5016923;28;45249;-50
2022/12/06 02:26:19;;;;;;;;;33.75;27.25;;;;;5.55;69.57;101753.38;5016871;28;45437;-49
2022/12/06 02:29:11;;;;;;;;;42.00;34.00;;;;;5.57;69.10;101761.25;5065014;27;45376;-50
2022/12/06 02:31:55;;;;;;;;;33.75;30.50;;;;;5.54;69.77;101761.41;5099531;27;46365;-49
2022/12/06 02:34:32;;;;;;;;;39.75;33.50;;;;;5.53;70.11;101754.44;5099522;27;45317;-50
2022/12/06 02:37:12;;;;;;;;;40.25;28.25;;;;;5.52;69.39;101758.88;5099562;27;45296;-49
2022/12/06 02:39:44;;;;;;;;;34.50;26.00;;;;;5.53;69.96;101759.72;5098270;27;45532;-50
2022/12/06 02:42:23;;;;;;;;;42.75;32.00;;;;;5.50;69.67;101748.38;5099165;27;47352;-52
2022/12/06 02:44:53;;;;;;;;;36.25;29.00;;;;;5.53;69.97;101750.00;5099275;27;45220;-52
2022/12/06 02:47:23;;;;;;;;;41.25;28.25;;;;;5.53;69.64;101747.38;5099302;27;45274;-51
2022/12/06 02:49:53;;;;;;;;;37.75;30.25;;;;;5.51;70.01;101750.06;5099464;27;45207;-50
2022/12/06 02:52:23;;;;;;;;;38.25;29.25;;;;;5.50;69.63;101744.91;5098899;27;46122;-50
2022/12/06 02:54:50;;;;;;;;;42.50;30.25;;;;;5.46;70.14;101746.00;5099295;27;45319;-49
2022/12/06 02:57:22;;;;;;;;;45.75;33.00;;;;;5.44;70.19;101740.00;5099023;27;45424;-53
2022/12/06 02:59:51;;;;;;;;;39.75;31.75;;;;;5.40;70.12;101733.19;5099353;27;45258;-52
2022/12/06 03:02:17;;;;;;;;;40.25;29.25;;;;;5.41;69.94;101746.28;5098990;27;45394;-50
2022/12/06 03:04:54;;;;;;;;;32.25;28.00;;;;;5.41;70.41;101746.28;5099013;27;45720;-52
2022/12/06 03:07:20;;;;;;;;;42.75;31.25;;;;;5.43;70.75;101749.66;5099274;27;45394;-49
2022/12/06 03:09:57;;;;;;;;;40.50;29.50;;;;;5.44;70.53;101747.91;5099173;27;45349;-51
2022/12/06 03:12:44;;;;;;;;;41.50;30.75;;;;;5.42;70.56;101747.97;5098467;27;46195;-49
2022/12/06 03:15:09;;;;;;;;;42.50;30.75;;;;;5.41;70.94;101745.44;5099016;27;45295;-49
2022/12/06 03:17:45;;;;;;;;;47.50;29.50;;;;;5.38;70.57;101745.59;5098950;27;45398;-52
2022/12/06 03:20:27;;;;;;;;;35.25;27.25;;;;;5.39;71.16;101748.13;5099273;27;45217;-52
2022/12/06 03:23:01;;;;;;;;;36.25;27.50;;;;;5.41;70.68;101753.34;5098649;27;46084;-48
2022/12/06 03:25:27;;;;;;;;;32.00;29.50;;;;;5.41;70.59;101750.72;5098443;27;45299;-49
2022/12/06 03:27:56;;;;;;;;;35.50;30.00;;;;;5.41;70.49;101750.72;5098819;27;45409;-52
2022/12/06 03:30:22;;;;;;;;;33.75;25.50;;;;;5.40;70.76;101749.88;5098953;27;45454;-51
2022/12/06 03:32:49;;;;;;;;;42.25;30.00;;;;;5.40;70.71;101751.66;5098454;27;46133;-50
2022/12/06 03:35:22;;;;;;;;;42.00;30.75;;;;;5.35;71.26;101746.66;5098319;27;45329;-50
2022/12/06 03:37:55;;;;;;;;;51.75;36.25;;;;;5.40;71.26;101752.50;5098797;27;45289;-51
2022/12/06 03:40:27;;;;;;;;;46.00;33.25;;;;;5.40;71.33;101751.66;5098640;27;45286;-49
2022/12/06 03:42:53;;;;;;;;;40.25;33.00;;;;;5.32;71.39;101730.16;5098138;27;46326;-51
2022/12/06 03:45:23;;;;;;;;;44.00;39.00;;;;;5.42;71.50;101752.41;5098449;27;45352;-50
2022/12/06 03:47:54;;;;;;;;;43.75;33.50;;;;;5.41;71.24;101753.34;5098300;27;45252;-49
2022/12/06 03:50:26;;;;;;;;;50.00;35.25;;;;;5.40;71.40;101749.88;5098572;27;45185;-50
2022/12/06 03:52:52;;;;;;;;;37.00;29.75;;;;;5.39;72.10;101748.13;5098317;27;45378;-52
2022/12/06 03:55:18;;;;;;;;;43.75;35.00;;;;;5.35;71.24;101729.94;5098087;27;45360;-49
2022/12/06 03:57:44;;;;;;;;;42.75;35.25;;;;;5.41;71.83;101742.78;5098134;27;45439;-52
2022/12/06 04:00:10;;;;;;;;;51.50;37.50;;;;;5.36;71.79;101727.22;5098619;27;45354;-49
2022/12/06 04:02:35;;;;;;;;;46.00;37.00;;;;;5.42;72.18;101736.56;5098500;27;45343;-52
2022/12/06 04:05:01;;;;;;;;;41.25;32.25;;;;;5.41;71.62;101746.28;5098823;27;45444;-49
2022/12/06 04:07:26;;;;;;;;;45.75;29.50;;;;;5.41;72.03;101753.34;5098843;27;45266;-51
2022/12/06 04:09:52;;;;;;;;;48.00;39.50;;;;;5.39;71.69;101749.94;5099340;27;45421;-52
2022/12/06 04:15:06;;;;;;;;;43.50;33.75;;;;;5.40;72.31;101756.94;5098097;27;45416;-51
2022/12/06 04:20:15;;;;;;;;;43.00;35.50;;;;;5.35;72.24;101744.00;5098293;27;45321;-51
2022/12/06 04:25:24;;;;;;;;;47.00;38.25;;;;;5.34;72.92;101746.72;5097857;27;45427;-49
2022/12/06 04:38:45;;;;;;;;;49.00;32.00;;;;;5.31;72.90;101742.50;5097754;27;45294;-49
2022/12/06 04:43:40;;;;;;;;;60.50;41.75;;;;;5.29;73.07;101741.72;5097699;27;45397;-52
2022/12/06 04:43:57;;;;;;;;;54.25;39.75;;;;;5.32;72.97;101738.06;5097532;27;45903;-47
2022/12/06 04:46:22;;;;;;;;;47.25;36.00;;;;;5.35;73.46;101746.66;5097457;27;45452;-49
2022/12/06 04:48:48;;;;;;;;;53.25;40.50;;;;;5.33;73.49;101737.09;5097714;27;45823;-50
2022/12/06 04:51:13;;;;;;;;;54.50;42.00;;;;;5.35;72.93;101735.22;5097849;27;45440;-50
2022/12/06 04:53:39;;;;;;;;;37.00;32.75;;;;;5.37;72.71;101738.63;5097370;27;47078;-52
2022/12/06 04:56:04;;;;;;;;;40.75;26.25;;;;;5.37;73.17;101733.34;5097143;27;45291;-49
2022/12/06 04:58:29;;;;;;;;;40.25;30.00;;;;;5.32;72.80;101728.34;5097271;27;45429;-52
2022/12/06 05:00:55;;;;;;;;;51.75;36.75;;;;;5.36;72.92;101735.16;5097763;27;45266;-51
2022/12/06 05:03:20;;;;;;;;;41.75;35.00;;;;;5.34;73.21;101733.53;5097116;27;46073;-51
2022/12/06 05:05:46;;;;;;;;;53.25;38.50;;;;;5.34;73.39;101736.16;5097045;27;45479;-49
2022/12/06 05:08:12;;;;;;;;;43.00;30.50;;;;;5.34;73.24;101738.81;5097413;27;45487;-49
2022/12/06 05:10:38;;;;;;;;;46.75;37.25;;;;;5.32;73.07;101730.16;5097543;27;45324;-50
2022/12/06 05:13:04;;;;;;;;;47.50;36.75;;;;;5.32;73.59;101725.72;5097013;27;46413;-50
2022/12/06 05:15:30;;;;;;;;;55.50;37.75;;;;;5.32;73.68;101722.22;5096989;27;45415;-51
2022/12/06 05:17:55;;;;;;;;;49.25;38.00;;;;;5.33;73.40;101732.69;5097238;27;45508;-50
2022/12/06 05:20:20;;;;;;;;;38.75;31.75;;;;;5.34;73.04;101723.81;5096162;27;45431;-48
2022/12/06 05:22:46;;;;;;;;;34.25;30.50;;;;;5.35;73.40;101724.66;5096919;27;46057;-49
2022/12/06 05:25:11;;;;;;;;;46.00;36.50;;;;;5.34;72.96;101726.47;5097078;27;45294;-49
2022/12/06 05:27:37;;;;;;;;;47.25;33.00;;;;;5.36;73.63;101721.13;5096945;27;45461;-52
2022/12/06 05:30:03;;;;;;;;;43.75;32.25;;;;;5.37;73.66;101728.09;5097224;27;45519;-49
2022/12/06 05:32:29;;;;;;;;;50.75;38.50;;;;;5.40;73.20;101725.28;5096716;27;46344;-49
2022/12/06 05:34:54;;;;;;;;;56.25;34.75;;;;;5.42;73.50;101715.47;5096672;27;45310;-51
2022/12/06 05:37:19;;;;;;;;;41.75;35.00;;;;;5.43;73.67;101717.16;5097138;27;45322;-47
2022/12/06 05:39:45;;;;;;;;;43.75;34.50;;;;;5.46;73.11;101714.34;5097038;27;45291;-52
2022/12/06 05:42:10;;;;;;;;;46.50;31.25;;;;;5.46;73.45;101722.25;5096704;27;46320;-49
2022/12/06 05:44:35;;;;;;;;;38.50;31.75;;;;;5.46;73.37;101714.34;5099195;27;45406;-49
2022/12/06 05:47:01;;;;;;;;;49.75;32.25;;;;;5.44;73.22;101708.31;5099845;27;45333;-49
2022/12/06 05:49:27;;;;;;;;;46.25;37.75;;;;;5.41;73.99;101695.31;5100761;27;45392;-49
2022/12/06 05:51:52;;;;;;;;;36.50;33.25;;;;;5.49;73.75;101711.53;5100202;27;46367;-51
2022/12/06 05:54:18;;;;;;;;;56.50;36.50;;;;;5.50;73.40;101703.50;5100110;27;45321;-52
2022/12/06 05:56:43;;;;;;;;;55.00;35.50;;;;;5.52;73.57;101703.44;5100307;27;45322;-49
2022/12/06 05:59:09;;;;;;;;;39.25;30.25;;;;;5.60;73.61;101713.53;5100417;27;45357;-51
2022/12/06 06:01:34;;;;;;;;;45.25;36.50;;;;;5.60;73.37;101713.53;5100174;27;46212;-51
2022/12/06 06:04:00;;;;;;;;;47.50;36.25;;;;;5.62;73.35;101707.22;5100119;27;45304;-49
2022/12/06 06:06:26;;;;;;;;;42.75;33.25;;;;;5.60;73.60;101700.31;5100217;27;45370;-47
2022/12/06 06:08:51;;;;;;;;;43.25;33.00;;;;;5.66;72.85;101714.03;5100821;27;45263;-52
2022/12/06 06:11:17;;;;;;;;;29.00;26.00;;;;;5.67;73.09;101717.50;5100181;27;46214;-50
2022/12/06 06:13:42;;;;;;;;;38.25;28.75;;;;;5.67;73.03;101713.06;5100155;27;45429;-52
2022/12/06 06:16:08;;;;;;;;;45.75;33.75;;;;;5.66;73.52;101707.91;5100642;27;45842;-49
2022/12/06 06:18:33;;;;;;;;;56.25;34.50;;;;;5.67;73.24;101717.50;5101049;27;45200;-51
2022/12/06 06:20:59;;;;;;;;;26.50;22.00;;;;;5.66;73.59;101713.19;5100259;27;46270;-49
2022/12/06 06:23:25;;;;;;;;;34.00;30.25;;;;;5.61;73.27;101715.25;5099685;27;45402;-51
2022/12/06 06:25:51;;;;;;;;;45.25;30.00;;;;;5.60;73.59;101711.72;5100000;27;45260;-47
2022/12/06 06:28:17;;;;;;;;;45.75;32.50;;;;;5.66;73.53;101721.09;5099842;27;45298;-48
2022/12/06 06:30:42;;;;;;;;;43.50;34.25;;;;;5.65;73.64;101717.59;5099561;27;46073;-49
2022/12/06 06:33:08;;;;;;;;;41.75;34.50;;;;;5.65;73.15;101720.25;5099692;27;45430;-51
2022/12/06 06:35:34;;;;;;;;;50.75;27.50;;;;;5.63;73.65;101718.63;5099523;27;45503;-51
2022/12/06 06:38:00;;;;;;;;;30.75;28.25;;;;;5.64;73.20;101722.97;5099649;27;45488;-49
2022/12/06 06:40:25;;;;;;;;;43.00;34.50;;;;;5.60;73.93;101722.28;5099459;27;45993;-46
2022/12/06 06:42:51;;;;;;;;;47.25;33.25;;;;;5.61;73.45;101721.38;5099240;27;45752;-51
2022/12/06 06:45:16;;;;;;;;;44.00;35.00;;;;;5.63;73.59;101724.75;5099594;27;45412;-50
2022/12/06 06:47:41;;;;;;;;;49.50;42.00;;;;;5.64;73.77;101725.59;5099235;27;45496;-49
2022/12/06 06:50:07;;;;;;;;;25.00;19.50;;;;;5.54;73.81;101705.97;5099290;27;45294;-52
2022/12/06 06:52:33;;;;;;;;;38.00;32.00;;;;;5.62;73.89;101727.50;5099055;27;45344;-51
2022/12/06 06:54:58;;;;;;;;;47.50;35.50;;;;;5.72;73.56;101736.56;5099155;27;45447;-51
2022/12/06 06:57:24;;;;;;;;;42.00;34.50;;;;;5.71;73.56;101734.88;5099313;27;45276;-50
2022/12/06 06:59:49;;;;;;;;;43.50;34.50;;;;;5.73;73.87;101728.56;5099030;27;46182;-48
2022/12/06 07:02:16;;;;;;;;;45.75;34.75;;;;;5.75;73.57;101734.59;5099180;27;45222;-49
2022/12/06 07:04:43;;;;;;;;;35.75;32.00;;;;;5.82;73.73;101735.09;5099165;27;45557;-48
2022/12/06 07:07:10;;;;;;;;;42.25;35.00;;;;;5.86;73.82;101725.19;5099319;27;45418;-48
2022/12/06 07:09:36;;;;;;;;;48.75;37.50;;;;;5.89;73.65;101731.13;5098999;27;46415;-51
2022/12/06 07:12:02;;;;;;;;;51.00;36.25;;;;;5.92;73.61;101730.97;5098673;27;45243;-50
2022/12/06 07:14:28;;;;;;;;;50.00;33.25;;;;;5.95;73.22;101735.22;5098979;27;45405;-51
2022/12/06 07:16:53;;;;;;;;;44.00;34.25;;;;;5.96;73.15;101721.06;5099227;27;45306;-48
2022/12/06 07:19:18;;;;;;;;;45.50;37.00;;;;;5.98;72.97;101724.47;5098925;27;46214;-52
2022/12/06 07:21:44;;;;;;;;;53.25;40.75;;;;;6.01;73.04;101724.28;5114750;27;45547;-50
2022/12/06 07:24:09;;;;;;;;;44.00;39.50;;;;;6.02;72.77;101719.84;5098904;27;45231;-49
2022/12/06 07:26:34;;;;;;;;;55.00;41.00;;;;;6.04;73.24;101718.81;5099240;27;45456;-51
2022/12/06 07:29:00;;;;;;;;;46.25;39.25;;;;;6.06;73.25;101716.91;5098624;27;46158;-51
2022/12/06 07:31:27;;;;;;;;;53.25;40.00;;;;;6.09;73.16;101721.19;5098537;27;45417;-48
2022/12/06 07:33:58;;;;;;;;;62.75;37.50;;;;;6.10;72.74;101723.72;5098889;27;45355;-50
2022/12/06 07:36:24;;;;;;;;;48.50;33.25;;;;;6.12;72.97;101726.28;5098795;27;45335;-50
2022/12/06 07:38:52;;;;;;;;;50.25;39.00;;;;;6.13;73.09;101731.47;5098240;27;46260;-50
2022/12/06 07:46:48;;;;;;;;;44.25;33.50;;;;;6.18;73.13;101726.75;5098403;27;45473;-50
2022/12/06 07:49:15;;;;;;;;;45.50;34.00;;;;;6.20;72.99;101722.22;5098165;27;45475;-54
2022/12/06 07:51:41;;;;;;;;;40.75;31.75;;;;;6.20;72.71;101722.22;5098445;27;45426;-49
2022/12/06 07:54:07;;;;;;;;;43.50;34.50;;;;;6.23;73.31;101723.81;5098492;27;45261;-48
2022/12/06 07:56:32;;;;;;;;;39.00;32.25;;;;;6.24;73.00;101723.72;5099260;27;45335;-48
2022/12/06 07:58:58;;;;;;;;;47.25;36.25;;;;;6.28;72.75;101727.03;5114170;27;48078;-50
2022/12/06 08:01:23;;;;;;;;;42.00;34.50;;;;;6.28;73.04;101724.41;5098349;27;45400;-50
2022/12/06 08:03:49;;;;;;;;;45.75;32.50;;;;;6.29;72.77;101725.25;5098662;27;45477;-52
2022/12/06 08:06:15;;;;;;;;;55.00;39.50;;;;;6.27;72.41;101719.19;5097480;27;45277;-50
2022/12/06 08:08:40;;;;;;;;;56.25;36.25;;;;;6.31;72.09;101726.84;5098113;27;46175;-47
2022/12/06 08:11:07;;;;;;;;;55.00;39.00;;;;;6.29;72.64;101725.25;5097832;27;45387;-51
2022/12/06 08:13:34;;;;;;;;;51.50;40.50;;;;;6.32;72.71;101733.84;5098043;27;45307;-51
2022/12/06 08:16:07;;;;;;;;;61.75;41.75;;;;;6.29;72.85;101741.09;5098138;27;45245;-46
2022/12/06 08:18:33;;;;;;;;;48.75;36.00;;;;;6.28;73.03;101747.31;5097708;27;46094;-51
2022/12/06 08:20:58;;;;;;;;;33.00;22.00;;;;;6.29;72.99;101749.88;5097856;27;45377;-51
2022/12/06 08:23:24;;;;;;;;;43.50;37.75;;;;;6.31;73.25;101749.75;5098314;27;45454;-50
2022/12/06 08:26:17;;;;;;;;;39.00;34.50;;;;;6.32;73.22;101754.97;5098174;27;45361;-50
2022/12/06 08:28:42;;;;;;;;;40.00;35.00;;;;;6.33;73.77;101750.53;5094605;27;45346;-51
2022/12/06 08:31:11;;;;;;;;;39.75;33.00;;;;;6.34;73.98;101755.72;5097665;27;45479;-49
2022/12/06 08:33:36;;;;;;;;;44.50;33.50;;;;;6.34;73.76;101760.16;5097952;27;45359;-49
2022/12/06 08:36:07;;;;;;;;;38.25;35.25;;;;;6.34;73.40;101754.88;5097939;27;45223;-48
2022/12/06 08:38:33;;;;;;;;;42.00;23.75;;;;;6.40;73.38;101757.13;5097767;27;46181;-50
2022/12/06 08:40:59;;;;;;;;;34.50;29.50;;;;;6.43;73.47;101759.59;5097564;27;45424;-51
2022/12/06 08:43:24;;;;;;;;;47.25;31.25;;;;;6.41;74.12;101756.19;5097731;27;45313;-48
2022/12/06 08:45:51;;;;;;;;;41.00;33.50;;;;;6.43;74.19;101771.00;5098206;27;45412;-48
2022/12/06 08:48:16;;;;;;;;;44.25;33.75;;;;;6.46;73.77;101780.53;5097182;27;46750;-49
2022/12/06 08:50:41;;;;;;;;;44.50;34.00;;;;;6.48;74.28;101778.66;5097459;27;45240;-52
2022/12/06 08:53:07;;;;;;;;;48.75;35.00;;;;;6.49;73.73;101783.00;5097546;27;45168;-49
2022/12/06 08:55:32;;;;;;;;;50.25;36.75;;;;;6.52;74.16;101776.66;5097811;27;45299;-49
2022/12/06 08:57:58;;;;;;;;;41.25;32.50;;;;;6.53;74.64;101781.88;5097334;27;45437;-51
2022/12/06 09:00:23;;;;;;;;;42.25;32.50;;;;;6.55;74.45;101782.63;5097460;27;45298;-51
2022/12/06 09:02:48;;;;;;;;;41.75;32.00;;;;;6.50;74.27;101779.41;5097529;27;45580;-48
2022/12/06 09:05:14;;;;;;;;;53.00;36.50;;;;;6.48;73.83;101771.56;5097703;27;45516;-51
2022/12/06 09:07:39;;;;;;;;;50.50;31.75;;;;;6.60;74.37;101791.09;5097252;27;46023;-49
2022/12/06 09:10:05;;;;;;;;;53.50;43.50;;;;;6.59;74.03;101786.78;5097234;27;45325;-51
2022/12/06 09:12:30;;;;;;;;;52.25;38.75;;;;;6.62;74.43;101781.31;5097235;27;45365;-46
2022/12/06 09:14:56;;;;;;;;;47.50;39.00;;;;;6.63;74.19;101785.63;5097421;27;45356;-50
2022/12/06 09:17:21;;;;;;;;;55.50;45.75;;;;;6.64;74.34;101795.25;5097561;27;46175;-48
2022/12/06 09:19:46;;;;;;;;;60.50;45.75;;;;;6.61;75.17;101784.03;5100817;27;46051;-49
2022/12/06 09:22:12;;;;;;;;;61.75;44.50;;;;;6.65;75.19;101794.31;5101118;27;45682;-50
2022/12/06 09:24:37;;;;;;;;;57.00;44.00;;;;;6.66;75.40;101795.19;5100925;27;45408;-48
2022/12/06 09:27:02;;;;;;;;;63.50;43.75;;;;;6.66;74.75;101796.03;5100934;27;46049;-49
2022/12/06 09:29:28;;;;;;;;;59.75;42.25;;;;;6.65;75.19;101804.88;5100610;27;45400;-51
2022/12/06 09:31:53;;;;;;;;;62.25;44.50;;;;;6.66;75.76;101803.97;5100774;27;45317;-49
2022/12/06 09:34:19;;;;;;;;;61.75;45.00;;;;;6.62;75.23;101786.59;5099889;27;45206;-47
2022/12/06 09:37:02;;;;;;;;;54.00;41.50;;;;;6.66;75.95;101808.41;5100346;27;45590;-50
2022/12/06 09:39:33;;;;;;;;;52.75;41.50;;;;;6.32;75.80;101754.09;5100615;27;45509;-46
2022/12/06 09:42:23;;;;;;;;;58.00;42.00;;;;;6.64;75.65;101802.34;5100635;27;45230;-51
2022/12/06 09:45:11;;;;;;;;;61.00;46.00;;;;;6.65;75.89;101804.03;5100715;27;45385;-50
2022/12/06 09:47:42;;;;;;;;;55.25;41.25;;;;;6.65;76.00;101802.22;5100296;27;45981;-51
2022/12/06 09:50:32;;;;;;;;;54.00;36.75;;;;;6.66;75.96;101811.03;5100359;27;45422;-51
2022/12/06 09:53:35;;;;;;;;;54.25;40.75;;;;;6.66;75.69;101811.03;5100302;27;45279;-51
2022/12/06 09:56:17;;;;;;;;;47.25;40.00;;;;;6.60;76.22;101811.41;5100567;27;45531;-49
2022/12/06 09:58:55;;;;;;;;;49.75;38.50;;;;;6.64;76.07;101805.00;5100145;27;45494;-51
2022/12/06 10:01:36;;;;;;;;;58.25;42.00;;;;;6.63;76.21;101806.78;5100076;27;45251;-48
2022/12/06 10:04:40;;;;;;;;;49.00;38.75;;;;;6.64;76.38;101813.75;5100185;27;45343;-49
2022/12/06 10:07:30;;;;;;;;;60.00;43.25;;;;;6.66;76.60;101817.19;5100343;27;45296;-52
2022/12/06 10:10:20;;;;;;;;;63.50;48.25;;;;;6.66;76.13;101809.25;5099831;27;46250;-51
2022/12/06 10:13:05;;;;;;;;;61.50;43.50;;;;;6.66;75.92;101816.34;5100072;27;45411;-49
2022/12/06 10:15:40;;;;;;;;;65.50;48.25;;;;;6.69;75.67;101813.47;5100069;27;45345;-52
2022/12/06 10:18:08;;;;;;;;;69.00;43.50;;;;;6.69;75.60;101806.38;5100362;27;45256;-48
2022/12/06 10:20:48;;;;;;;;;68.25;49.75;;;;;6.69;75.90;101803.75;5099776;27;46185;-49
2022/12/06 10:23:33;;;;;;;;;77.00;51.50;;;;;6.71;76.28;101808.97;5099882;27;45467;-49
2022/12/06 10:26:08;;;;;;;;;68.50;48.25;;;;;6.71;75.91;101806.31;5099951;27;45444;-52
2022/12/06 10:28:59;;;;;;;;;70.00;46.50;;;;;6.71;76.20;101808.97;5099634;27;45432;-51
2022/12/06 10:31:48;;;;;;;;;61.75;46.75;;;;;6.41;76.42;101750.91;5099837;27;46222;-49
2022/12/06 10:34:19;;;;;;;;;56.50;44.00;;;;;6.73;75.66;101813.19;5088496;27;45485;-50
2022/12/06 10:37:00;;;;;;;;;52.00;40.75;;;;;6.73;76.28;101821.13;5099641;27;45394;-47
2022/12/06 10:39:35;;;;;;;;;63.25;44.50;;;;;6.73;76.33;101810.53;5099831;27;45432;-49
2022/12/06 10:42:17;;;;;;;;;47.25;41.00;;;;;6.74;75.54;101803.47;5099278;27;46208;-50
2022/12/06 10:44:52;;;;;;;;;58.00;42.00;;;;;6.74;75.62;101809.63;5099186;27;45392;-48
2022/12/06 10:47:20;;;;;;;;;48.75;34.75;;;;;6.72;76.01;101814.13;5099454;27;45475;-50
2022/12/06 10:50:07;;;;;;;;;61.00;43.50;;;;;6.72;75.79;101819.44;5099711;27;45382;-52
2022/12/06 10:52:44;;;;;;;;;57.75;37.00;;;;;6.73;75.95;101809.69;5097870;27;46077;-51
2022/12/06 10:55:10;;;;;;;;;40.25;34.25;;;;;6.74;75.67;101806.97;5099059;27;45535;-51
2022/12/06 10:58:02;;;;;;;;;59.00;38.00;;;;;6.75;75.92;101802.53;5099315;27;45193;-51
2022/12/06 11:00:33;;;;;;;;;48.25;41.00;;;;;6.73;76.15;101807.06;5099630;27;45264;-52
2022/12/06 11:03:30;;;;;;;;;60.25;43.50;;;;;6.74;75.77;101798.16;5099164;27;45398;-48
2022/12/06 11:06:08;;;;;;;;;60.50;41.50;;;;;6.73;75.79;101797.31;5099149;27;45435;-52
2022/12/06 11:08:53;;;;;;;;;49.25;40.00;;;;;6.78;75.80;101797.03;5099207;27;45371;-50
2022/12/06 11:11:34;;;;;;;;;59.00;42.25;;;;;6.78;76.06;101798.81;5099239;27;45226;-51
2022/12/06 11:14:08;;;;;;;;;47.25;38.75;;;;;6.78;75.90;101794.38;5098836;27;46267;-50
2022/12/06 11:16:38;;;;;;;;;60.25;41.75;;;;;6.79;75.64;101789.97;5098894;27;45473;-50
2022/12/06 11:19:33;;;;;;;;;46.75;40.25;;;;;6.81;76.02;101798.66;5099066;27;45256;-52
2022/12/06 11:22:03;;;;;;;;;43.00;41.25;;;;;6.81;76.04;101786.25;5099410;27;45285;-51
2022/12/06 11:24:46;;;;;;;;;46.00;38.75;;;;;6.82;75.87;101782.66;5099149;27;46105;-47
2022/12/06 11:27:17;;;;;;;;;49.00;37.75;;;;;6.84;76.05;101788.72;5099157;27;45293;-49
2022/12/06 11:29:46;;;;;;;;;62.00;44.00;;;;;6.81;75.90;101780.97;5098768;27;45314;-51
2022/12/06 11:32:15;;;;;;;;;55.75;38.75;;;;;6.83;75.88;101786.19;5099032;27;45471;-52
2022/12/06 11:34:53;;;;;;;;;38.75;24.75;;;;;6.83;76.09;101783.53;5098699;27;45316;-50
2022/12/06 11:37:21;;;;;;;;;65.50;46.50;;;;;6.80;75.71;101779.28;5098754;27;45234;-50
2022/12/06 11:40:04;;;;;;;;;54.00;45.25;;;;;6.87;75.73;101779.72;5098609;27;45343;-50
2022/12/06 11:42:30;;;;;;;;;52.25;40.75;;;;;6.84;75.86;101767.56;5097585;27;45304;-50
2022/12/06 11:45:16;;;;;;;;;55.25;37.25;;;;;6.78;75.93;101757.38;5098432;27;47003;-47
2022/12/06 11:47:41;;;;;;;;;62.75;44.25;;;;;6.87;76.18;101763.84;5098359;27;45352;-51
2022/12/06 11:50:15;;;;;;;;;52.25;39.00;;;;;6.86;76.76;101759.53;5098336;27;45426;-51
2022/12/06 11:52:46;;;;;;;;;48.75;32.50;;;;;6.75;75.83;101739.06;5098715;27;45319;-51
2022/12/06 11:55:22;;;;;;;;;58.75;44.50;;;;;6.84;76.58;101751.69;5098119;27;46205;-48